EST,Max TemperatureF,Mean TemperatureF,Min TemperatureF,Max Dew PointF,MeanDew PointF,Min DewpointF,Max Humidity, Mean Humidity, Min Humidity, Max Sea Level PressureIn, Mean Sea Level PressureIn, Min Sea Level PressureIn, Max VisibilityMiles, Mean VisibilityMiles, Min VisibilityMiles, Max Wind SpeedMPH, Mean Wind SpeedMPH, Max Gust SpeedMPH,PrecipitationIn, CloudCover, Events, WindDirDegrees
2013-1-1,33,28,21,30,20,14,89,73,63,30.13,30.07,29.99,10,10,7,16,13,20,0.00,8,,297
2013-1-2,21,19,17,16,13,10,85,74,65,30.25,30.18,30.08,10,10,9,13,10,,0.00,8,,219
2013-1-3,28,22,15,25,16,8,86,75,61,30.22,30.17,30.08,10,9,8,18,11,26,0.00,6,,206
2013-1-4,28,26,25,23,19,17,78,70,61,30.25,30.18,30.12,10,10,10,25,18,40,0.00,3,,228
2013-1-5,36,30,24,26,22,18,80,71,61,30.36,30.24,30.11,10,9,6,15,11,22,0.00,6,,196
2013-1-6,37,34,32,32,29,27,93,81,70,30.25,30.05,29.94,10,8,4,24,14,29,0.00,8,Snow,228
2013-1-7,36,33,30,31,27,23,93,78,61,30.45,30.33,30.23,10,7,4,18,12,26,0.00,5,,232
2013-1-8,42,35,28,28,24,22,78,64,45,30.31,30.27,30.23,10,9,5,16,9,26,0.00,0,,182
2013-1-9,48,42,34,37,31,27,82,68,54,30.49,30.24,30.13,10,10,10,21,15,29,0.02,2,Rain,210
2013-1-10,43,36,30,32,27,24,88,69,47,30.61,30.47,30.20,10,10,5,12,6,21,0.00,1,,155
2013-1-11,57,50,44,52,43,25,97,78,47,30.16,29.96,29.82,10,9,2,24,16,34,0.44,6,Rain,173
2013-1-12,61,54,48,54,51,47,97,83,72,30.00,29.95,29.88,10,10,8,16,13,23,0.00,1,,174
2013-1-13,64,50,37,58,42,36,100,95,75,30.03,29.86,29.70,10,7,2,26,11,40,0.22,7,Rain,258
2013-1-14,36,32,28,36,25,20,100,81,72,30.45,30.29,30.04,10,10,10,24,15,30,0.00,8,,282
2013-1-15,30,28,27,22,21,19,75,72,66,30.43,30.34,30.14,10,10,10,10,7,,0.00,5,,16
2013-1-16,36,33,30,25,22,20,72,65,56,30.11,29.97,29.88,10,10,10,20,8,26,0.00,4,,190
2013-1-17,36,31,26,31,26,17,85,73,64,30.28,30.14,30.01,10,10,9,29,14,37,0.00,6,Snow,281
2013-1-18,37,30,23,18,14,10,74,56,44,30.49,30.35,30.06,10,10,9,28,17,41,0.00,5,,223
2013-1-19,51,44,37,28,24,19,48,42,36,30.08,29.92,29.68,10,10,10,24,19,38,0.00,1,,205
2013-1-20,46,34,21,33,17,11,74,63,54,30.18,30.03,29.65,10,10,6,37,27,48,0.00,7,Snow,264
2013-1-21,21,16,12,14,10,5,86,72,51,30.14,30.04,29.96,10,5,0,33,19,46,0.00,8,Fog-Snow,246
2013-1-22,14,10,6,10,4,0,96,76,61,30.30,30.22,30.06,10,3,0,30,24,50,0.02,8,Fog-Snow,262
2013-1-23,15,12,8,11,5,1,84,75,62,30.31,30.23,30.09,10,4,1,25,17,33,0.00,8,Snow,225
2013-1-24,21,18,15,16,9,4,93,68,50,30.59,30.36,30.07,10,8,0,24,13,34,0.01,5,Fog-Snow,323
2013-1-25,19,17,15,16,10,5,88,75,59,30.52,30.22,30.05,10,6,1,13,7,,0.01,7,Snow,156
2013-1-26,24,22,19,21,19,15,93,84,71,30.45,30.24,30.07,10,7,2,17,10,24,0.00,8,Snow,255
2013-1-27,30,24,18,27,18,12,93,74,56,30.53,30.40,30.25,10,8,2,15,8,23,0.13,4,Snow,157
2013-1-28,50,40,30,48,40,24,100,93,75,30.22,30.01,29.90,10,5,0,25,16,34,0.22,8,Fog-Rain-Snow,188
2013-1-29,63,49,35,56,47,36,100,93,67,30.05,29.89,29.60,10,5,0,23,8,38,0.13,7,Fog-Rain,158
2013-1-30,64,50,37,55,48,34,100,84,65,29.55,29.31,29.15,10,8,0,36,20,48,0.53,6,Fog-Rain,212
2013-1-31,36,28,21,31,19,9,86,73,58,29.87,29.64,29.30,10,6,1,39,30,51,0.00,8,Snow,255